Debrecen, Hungary

12:13 AM CEST on July 07, 2015 (GMT +0200)
Debrecen | | Change Station
CLOSE
Current Station
Personal Weather Station
Location: Debrecen, HAJDU-BIHAR MEGYE
Elevation: 410 ft
Nearby Weather Stations

Elev 410 ft 47.54 °N, 21.63 °E | Updated 3 minutes ago

Clear
Clear
80.2 °F
Feels Like 79 °F
N
0.0
Wind Variable Wind from West
Gusts 0.0 mph

4:44 AM 8:32 PM
Waning Gibbous, 72% visible
Pressure 30.04 in
Visibility 6.2 miles
Clouds
Heat Index 79 °F
Dew Point 48 °F
Humidity 32%
Rainfall 0.00 in
Snow Depth Not available.
UV Not available.
Pollen Not available.
Air Quality Not available.
Flu Activity Not available.
METAR LROD 062200Z AUTO 11007KT 9999 NCD 21/16 Q1017

More Conditions Fewer Conditions

Pressure 30.04 in
Visibility 6.2 miles
Clouds
Heat Index 79 °F
Dew Point 48 °F
Humidity 32%
Rainfall 0.00 in
Snow Depth Not available.
UV Not available.
Pollen Not available.
Air Quality Not available.
Flu Activity Not available.
METAR LROD 062200Z AUTO 11007KT 9999 NCD 21/16 Q1017

More Conditions Fewer Conditions

10-Day Weather Forecast

×

Almanac

Astronomy

Jul. 07, 2015 Rise Set
Actual Time
Civil Twilight
Nautical Twilight
Astronomical Twilight
Moon
Length of Visible Light
Length of Day
Tomorrow will be .
, % of the Moon is Illuminated

Today's Extremes

Country Highs Country Lows

Community

WunderPhotos

Upload Photos

1,835,661 photos uploaded!

WunderBlogs® & News

Nearby

Air Quality

  Air Quality AQ Index Pollutant
Not available.

Snow Depth

Station Depth Elevation

Earthquake Activity

City Distance Mag. Time & Date
Minimum magnitude displayed is 2.5.

Coastal Water Temperatures

Place Temperature

Stations

Nearby Weather Stations

Station Location Temp. Windchill Dew Point Humidity Wind Precip. Elev Updated Type